createdAt,value
2019-01-14T00:00:00.603Z,79.67
2019-01-14T00:02:29.523Z,79.90
2019-01-14T00:04:57.915Z,80.13
2019-01-14T00:07:26.720Z,71.27
2019-01-14T00:09:55.221Z,75.37
2019-01-14T00:12:23.875Z,72.83
2019-01-14T00:14:52.577Z,73.60
2019-01-14T00:17:21.176Z,71.60
2019-01-14T00:19:49.988Z,72.10
2019-01-14T00:22:18.374Z,70.97
2019-01-14T00:24:47.199Z,69.87
2019-01-14T00:27:15.658Z,73.60
2019-01-14T00:29:44.313Z,69.63
2019-01-14T00:32:12.949Z,66.33
2019-01-14T00:34:41.520Z,64.80
2019-01-14T00:37:10.375Z,63.17
2019-01-14T00:39:38.827Z,60.93
2019-01-14T00:42:07.007Z,63.00
2019-01-14T00:44:35.637Z,62.03
2019-01-14T00:47:04.018Z,65.83
2019-01-14T00:49:32.488Z,67.23
2019-01-14T00:52:01.142Z,66.97
2019-01-14T00:54:30.781Z,66.83
2019-01-14T00:56:59.210Z,67.70
2019-01-14T00:59:27.498Z,68.37
2019-01-14T01:01:56.226Z,68.07
2019-01-14T01:04:24.969Z,70.07
2019-01-14T01:06:53.876Z,66.83
2019-01-14T01:09:22.263Z,72.27
2019-01-14T01:11:51.024Z,71.50
2019-01-14T01:14:19.347Z,70.40
2019-01-14T01:16:48.121Z,69.23
2019-01-14T01:19:16.778Z,73.63
2019-01-14T01:21:45.472Z,73.77
2019-01-14T01:24:14.056Z,72.40
2019-01-14T01:26:42.778Z,79.67
2019-01-14T01:29:11.444Z,81.00
2019-01-14T01:31:39.755Z,78.47
2019-01-14T01:34:08.055Z,71.17
2019-01-14T01:36:36.322Z,66.77
2019-01-14T01:39:07.367Z,67.30
2019-01-14T01:41:36.153Z,63.77
2019-01-14T01:44:04.699Z,63.97
2019-01-14T01:46:33.130Z,63.90
2019-01-14T01:49:01.856Z,60.03
2019-01-14T01:51:30.336Z,60.10
2019-01-14T01:53:59.139Z,60.93
2019-01-14T01:56:27.602Z,58.93
2019-01-14T01:58:56.422Z,57.63
2019-01-14T02:01:25.300Z,58.23
2019-01-14T02:03:53.932Z,57.27
2019-01-14T02:06:22.769Z,55.77
2019-01-14T02:08:51.564Z,62.35
2019-01-14T02:11:20.401Z,57.00
2019-01-14T02:13:50.440Z,60.97
2019-01-14T02:16:18.790Z,57.87
2019-01-14T02:18:48.351Z,57.00
2019-01-14T02:21:16.981Z,56.77
2019-01-14T02:23:45.674Z,58.13
2019-01-14T02:26:14.339Z,56.17
2019-01-14T02:28:42.885Z,54.60
2019-01-14T02:31:11.505Z,56.20
2019-01-14T02:33:39.783Z,56.27
2019-01-14T02:36:08.129Z,55.63
2019-01-14T02:38:38.007Z,56.13
2019-01-14T02:41:06.634Z,53.60
2019-01-14T02:43:35.409Z,51.77
2019-01-14T02:46:04.043Z,51.77
2019-01-14T02:48:32.845Z,52.63
2019-01-14T02:51:01.438Z,49.83
2019-01-14T02:53:30.411Z,50.97
2019-01-14T02:55:58.702Z,52.67
2019-01-14T02:58:27.187Z,50.70
2019-01-14T03:00:55.992Z,51.93
2019-01-14T03:03:24.518Z,50.73
2019-01-14T03:05:52.949Z,52.17
2019-01-14T03:08:21.519Z,51.03
2019-01-14T03:10:50.200Z,48.90
2019-01-14T03:13:18.746Z,46.63
2019-01-14T03:15:47.313Z,49.97
2019-01-14T03:18:15.715Z,47.80
2019-01-14T03:20:43.992Z,46.17
2019-01-14T03:23:12.792Z,46.13
2019-01-14T03:25:41.634Z,44.97
2019-01-14T03:28:10.350Z,42.70
2019-01-14T03:30:39.021Z,43.43
2019-01-14T03:33:07.508Z,42.17
2019-01-14T03:35:35.718Z,44.83
2019-01-14T03:38:04.155Z,38.77
2019-01-14T03:40:32.486Z,46.50
2019-01-14T03:43:00.810Z,41.00
2019-01-14T03:45:29.483Z,45.93
2019-01-14T03:47:57.847Z,45.73
2019-01-14T03:50:26.275Z,42.70
2019-01-14T03:52:54.965Z,42.20
2019-01-14T03:55:23.505Z,42.27
2019-01-14T03:57:52.987Z,42.07
2019-01-14T04:00:21.636Z,39.53
2019-01-14T04:02:50.232Z,40.70
2019-01-14T04:05:20.104Z,39.00
2019-01-14T04:07:48.394Z,40.83
2019-01-14T04:10:16.843Z,40.27
2019-01-14T04:12:45.575Z,42.60
2019-01-14T04:15:16.389Z,40.57
2019-01-14T04:17:45.164Z,41.13
2019-01-14T04:20:15.312Z,42.27
2019-01-14T04:22:44.039Z,43.43
2019-01-14T04:25:12.759Z,39.80
2019-01-14T04:27:41.577Z,40.00
2019-01-14T04:30:16.342Z,41.23
2019-01-14T04:32:44.859Z,40.37
2019-01-14T04:35:13.213Z,42.27
2019-01-14T04:37:42.860Z,42.17
2019-01-14T04:40:11.723Z,42.17
2019-01-14T04:42:40.460Z,42.83
2019-01-14T04:45:09.234Z,38.70
2019-01-14T04:47:37.595Z,41.80
2019-01-14T04:50:08.812Z,40.17
2019-01-14T04:52:37.336Z,52.83
2019-01-14T04:55:06.280Z,45.87
2019-01-14T04:57:34.599Z,43.50
2019-01-14T05:00:03.797Z,43.43
2019-01-14T05:02:32.648Z,41.13
2019-01-14T05:05:01.248Z,43.77
2019-01-14T05:07:31.719Z,43.83
2019-01-14T05:10:00.611Z,40.27
2019-01-14T05:12:29.432Z,42.90
2019-01-14T05:14:58.070Z,40.70
2019-01-14T05:17:26.612Z,41.63
2019-01-14T05:19:55.278Z,43.13
2019-01-14T05:22:23.914Z,42.93
2019-01-14T05:24:52.406Z,41.33
2019-01-14T05:27:21.075Z,43.37
2019-01-14T05:29:49.598Z,41.27
2019-01-14T05:32:18.050Z,41.50
2019-01-14T05:34:46.707Z,41.13
2019-01-14T05:37:15.466Z,41.23
2019-01-14T05:39:44.081Z,39.90
2019-01-14T05:42:12.621Z,41.07
2019-01-14T05:44:41.396Z,43.10
2019-01-14T05:47:10.037Z,40.57
2019-01-14T05:49:38.467Z,39.00
2019-01-14T05:52:07.176Z,39.97
2019-01-14T05:54:36.017Z,40.60
2019-01-14T05:57:04.767Z,41.10
2019-01-14T05:59:33.071Z,40.30
2019-01-14T06:02:01.732Z,41.83
2019-01-14T06:04:30.334Z,39.97
2019-01-14T06:06:59.048Z,44.40
2019-01-14T06:09:27.937Z,43.13
2019-01-14T06:11:56.194Z,41.67
2019-01-14T06:14:24.937Z,38.43
2019-01-14T06:16:53.511Z,37.13
2019-01-14T06:19:22.133Z,39.20
2019-01-14T06:21:50.820Z,39.07
2019-01-14T06:24:19.481Z,38.77
2019-01-14T06:26:48.275Z,36.97
2019-01-14T06:29:16.610Z,38.20
2019-01-14T06:31:45.351Z,38.77
2019-01-14T06:34:13.932Z,39.50
2019-01-14T06:36:42.553Z,39.70
2019-01-14T06:39:11.328Z,37.20
2019-01-14T06:41:40.023Z,39.40
2019-01-14T06:44:08.402Z,40.00
2019-01-14T06:46:37.264Z,42.53
2019-01-14T06:49:05.551Z,41.07
2019-01-14T06:51:34.284Z,39.97
2019-01-14T06:54:02.859Z,38.30
2019-01-14T06:56:31.352Z,38.27
2019-01-14T06:59:00.048Z,36.13
2019-01-14T07:01:28.415Z,37.97
2019-01-14T07:03:57.097Z,36.57
2019-01-14T07:06:25.763Z,38.37
2019-01-14T07:08:54.473Z,38.00
2019-01-14T07:11:23.768Z,40.37
2019-01-14T07:13:52.590Z,39.50
2019-01-14T07:16:21.330Z,41.47
2019-01-14T07:18:49.679Z,47.27
2019-01-14T07:21:17.955Z,44.23
2019-01-14T07:23:46.675Z,47.57
2019-01-14T07:26:15.274Z,44.87
2019-01-14T07:28:44.016Z,49.63
2019-01-14T07:31:12.532Z,46.17
2019-01-14T07:33:40.887Z,47.03
2019-01-14T07:36:09.513Z,49.80
2019-01-14T07:38:38.179Z,47.63
2019-01-14T07:41:06.531Z,44.27
2019-01-14T07:43:35.115Z,45.07
2019-01-14T07:46:03.522Z,45.20
2019-01-14T07:48:32.108Z,45.13
2019-01-14T07:51:00.802Z,43.00
2019-01-14T07:53:29.377Z,44.40
2019-01-14T07:55:57.850Z,45.93
2019-01-14T07:58:26.656Z,42.37
2019-01-14T08:00:55.515Z,44.50
2019-01-14T08:03:24.072Z,46.23
2019-01-14T08:05:52.684Z,40.37
2019-01-14T08:08:21.507Z,40.33
2019-01-14T08:10:50.300Z,46.90
2019-01-14T08:13:18.553Z,52.63
2019-01-14T08:15:47.159Z,56.47
2019-01-14T08:18:15.890Z,43.87
2019-01-14T08:20:44.462Z,44.43
2019-01-14T08:23:13.196Z,42.40
2019-01-14T08:25:41.816Z,42.17
2019-01-14T08:28:10.495Z,40.50
2019-01-14T08:30:39.189Z,41.00
2019-01-14T08:33:07.996Z,40.27
2019-01-14T08:35:36.770Z,38.57
2019-01-14T08:38:05.380Z,35.70
2019-01-14T08:40:34.134Z,34.80
2019-01-14T08:43:02.616Z,36.47
2019-01-14T08:45:31.102Z,40.97
2019-01-14T08:47:59.681Z,38.80
2019-01-14T08:50:28.338Z,36.77
2019-01-14T08:52:56.980Z,38.53
2019-01-14T08:55:25.728Z,38.10
2019-01-14T08:57:54.755Z,37.77
2019-01-14T09:00:23.892Z,40.17
2019-01-14T09:02:52.593Z,39.80
2019-01-14T09:05:21.215Z,36.87
2019-01-14T09:07:49.991Z,36.67
2019-01-14T09:10:23.619Z,35.73
2019-01-14T09:12:52.599Z,40.05
2019-01-14T09:15:21.387Z,36.90
2019-01-14T09:17:50.281Z,38.40
2019-01-14T09:20:22.171Z,35.70
2019-01-14T09:22:51.013Z,38.97
2019-01-14T09:25:19.375Z,38.43
2019-01-14T09:27:48.201Z,37.70
2019-01-14T09:30:27.014Z,38.70
2019-01-14T09:32:55.990Z,40.77
2019-01-14T09:35:24.635Z,42.40
2019-01-14T09:37:53.180Z,41.70
2019-01-14T09:40:23.417Z,41.77
2019-01-14T09:42:52.155Z,37.17
2019-01-14T09:45:20.868Z,39.23
2019-01-14T09:47:49.408Z,40.95
2019-01-14T09:50:18.074Z,37.73
2019-01-14T09:52:46.726Z,37.00
2019-01-14T09:55:16.932Z,37.83
2019-01-14T09:57:45.267Z,37.97
2019-01-14T10:00:14.396Z,40.93
2019-01-14T10:02:43.843Z,42.03
2019-01-14T10:05:13.968Z,42.17
2019-01-14T10:07:42.638Z,39.50
2019-01-14T10:10:13.164Z,39.43
2019-01-14T10:12:42.153Z,40.40
2019-01-14T10:15:16.327Z,39.17
2019-01-14T10:17:46.602Z,39.77
2019-01-14T10:20:15.133Z,39.03
2019-01-14T10:22:43.852Z,43.48
2019-01-14T10:25:12.253Z,42.73
2019-01-14T10:27:40.991Z,44.53
2019-01-14T10:30:13.234Z,43.02
2019-01-14T10:32:42.017Z,44.27
2019-01-14T10:35:10.695Z,42.27
2019-01-14T10:37:39.452Z,44.90
2019-01-14T10:40:10.051Z,43.07
2019-01-14T10:42:38.840Z,43.27
2019-01-14T10:45:16.536Z,43.27
2019-01-14T10:47:45.292Z,43.37
2019-01-14T10:50:14.387Z,47.08
2019-01-14T10:52:43.128Z,45.83
2019-01-14T10:55:13.350Z,46.33
2019-01-14T10:57:42.741Z,46.00
2019-01-14T11:00:14.660Z,44.83
2019-01-14T11:02:47.945Z,44.50
2019-01-14T11:05:18.465Z,43.47
2019-01-14T11:07:47.137Z,45.80
2019-01-14T11:10:15.808Z,47.53
2019-01-14T11:12:44.680Z,42.60
2019-01-14T11:15:13.862Z,43.53
2019-01-14T11:17:42.641Z,41.70
2019-01-14T11:20:22.897Z,41.97
2019-01-14T11:22:51.586Z,42.07
2019-01-14T11:25:20.227Z,42.00
2019-01-14T11:27:48.638Z,41.00
2019-01-14T11:30:20.387Z,41.50
2019-01-14T11:32:49.154Z,39.27
2019-01-14T11:35:17.748Z,42.23
2019-01-14T11:37:47.579Z,42.03
2019-01-14T11:40:18.928Z,41.87
2019-01-14T11:42:47.608Z,41.10
2019-01-14T11:45:16.440Z,41.97
2019-01-14T11:47:45.213Z,41.40
2019-01-14T11:50:14.930Z,43.75
2019-01-14T11:52:44.227Z,40.63
2019-01-14T11:55:12.963Z,43.17
2019-01-14T11:57:41.604Z,41.67
2019-01-14T12:00:14.359Z,43.68
2019-01-14T12:02:43.055Z,47.03
2019-01-14T12:05:12.993Z,45.30
2019-01-14T12:07:41.618Z,45.13
2019-01-14T12:10:10.354Z,46.57
2019-01-14T12:12:39.234Z,47.55
2019-01-14T12:15:12.141Z,47.45
2019-01-14T12:17:40.760Z,44.13
2019-01-14T12:20:10.478Z,42.73
2019-01-14T12:22:39.163Z,42.00
2019-01-14T12:25:08.210Z,41.30
2019-01-14T12:27:36.830Z,39.97
2019-01-14T12:30:11.053Z,42.30
2019-01-14T12:32:39.700Z,41.13
2019-01-14T12:35:08.484Z,39.27
2019-01-14T12:37:37.255Z,40.60
2019-01-14T12:40:07.989Z,41.28
2019-01-14T12:42:36.715Z,38.07
2019-01-14T12:45:06.786Z,41.60
2019-01-14T12:47:35.385Z,38.83
2019-01-14T12:50:04.852Z,40.10
2019-01-14T12:52:33.412Z,46.10
2019-01-14T12:55:02.304Z,42.00
2019-01-14T12:57:30.956Z,40.23
2019-01-14T12:59:59.580Z,39.50
2019-01-14T13:02:28.288Z,41.23
2019-01-14T13:04:57.116Z,39.47
2019-01-14T13:07:25.789Z,43.15
2019-01-14T13:09:54.440Z,43.42
2019-01-14T13:12:23.116Z,40.17
2019-01-14T13:14:51.748Z,41.17
2019-01-14T13:17:20.363Z,39.00
2019-01-14T13:19:49.079Z,38.50
2019-01-14T13:22:17.713Z,42.00
2019-01-14T13:24:46.272Z,36.20
2019-01-14T13:27:15.362Z,37.43
2019-01-14T13:29:45.063Z,41.57
2019-01-14T13:32:13.770Z,40.67
2019-01-14T13:34:44.849Z,38.60
2019-01-14T13:37:13.852Z,39.13
2019-01-14T13:39:42.657Z,38.23
2019-01-14T13:42:11.487Z,37.60
2019-01-14T13:44:40.092Z,38.40
2019-01-14T13:47:08.880Z,38.93
2019-01-14T13:49:37.644Z,38.60
2019-01-14T13:52:06.290Z,40.00
2019-01-14T13:54:35.061Z,40.30
2019-01-14T13:57:03.774Z,41.93
2019-01-14T13:59:32.578Z,38.63
2019-01-14T14:02:01.299Z,37.77
2019-01-14T14:04:30.896Z,40.23
2019-01-14T14:06:59.563Z,37.97
2019-01-14T14:09:28.279Z,38.70
2019-01-14T14:11:56.991Z,36.87
2019-01-14T14:14:25.820Z,36.37
2019-01-14T14:16:54.457Z,37.33
2019-01-14T14:19:23.201Z,38.33
2019-01-14T14:21:52.018Z,38.23
2019-01-14T14:24:20.861Z,36.07
2019-01-14T14:26:49.520Z,37.33
2019-01-14T14:29:18.237Z,38.13
2019-01-14T14:31:46.972Z,38.47
2019-01-14T14:34:15.528Z,40.13
2019-01-14T14:36:44.343Z,37.53
2019-01-14T14:39:12.745Z,36.53
2019-01-14T14:41:41.492Z,40.03
2019-01-14T14:44:10.183Z,41.33
2019-01-14T14:46:38.963Z,38.60
2019-01-14T14:49:07.725Z,39.70
2019-01-14T14:51:36.217Z,39.13
2019-01-14T14:54:05.125Z,40.33
2019-01-14T14:56:33.668Z,38.53
2019-01-14T14:59:02.468Z,38.90
2019-01-14T15:01:31.167Z,38.93
2019-01-14T15:03:59.670Z,39.50
2019-01-14T15:06:28.359Z,39.10
2019-01-14T15:08:57.001Z,41.47
2019-01-14T15:11:25.585Z,41.33
2019-01-14T15:13:54.228Z,43.97
2019-01-14T15:16:22.838Z,39.70
2019-01-14T15:18:51.669Z,40.03
2019-01-14T15:21:20.190Z,40.27
2019-01-14T15:23:49.802Z,39.63
2019-01-14T15:26:18.371Z,38.70
2019-01-14T15:28:46.786Z,32.33
2019-01-14T15:31:15.503Z,20.10
2019-01-14T15:33:44.092Z,11.43
2019-01-14T15:36:12.995Z,5.17
2019-01-14T15:38:41.543Z,2.70
2019-01-14T15:41:10.055Z,2.00
2019-01-14T15:43:38.546Z,2.10
2019-01-14T15:46:07.319Z,1.87
2019-01-14T15:48:35.778Z,3.33
2019-01-14T15:51:04.600Z,2.27
2019-01-14T15:53:33.326Z,2.67
2019-01-14T15:56:02.037Z,2.17
2019-01-14T15:58:30.590Z,1.80
2019-01-14T16:00:59.065Z,2.30
2019-01-14T16:03:28.765Z,2.70
2019-01-14T16:05:57.533Z,3.30
2019-01-14T16:08:25.976Z,2.97
2019-01-14T16:10:54.751Z,3.07
2019-01-14T16:13:23.211Z,2.67
2019-01-14T16:15:52.012Z,3.40
2019-01-14T16:18:20.424Z,2.50
2019-01-14T16:20:49.063Z,2.00
2019-01-14T16:23:17.694Z,2.13
2019-01-14T16:25:46.145Z,2.63
2019-01-14T16:28:14.712Z,2.47
2019-01-14T16:30:43.351Z,2.30
2019-01-14T16:33:12.006Z,3.20
2019-01-14T16:35:40.527Z,4.37
2019-01-14T16:38:09.173Z,3.67
2019-01-14T16:40:37.941Z,4.40
2019-01-14T16:43:06.443Z,4.40
2019-01-14T16:45:35.075Z,5.10
2019-01-14T16:48:03.638Z,4.20
2019-01-14T16:50:32.480Z,3.10
2019-01-14T16:53:01.306Z,2.93
2019-01-14T16:55:54.873Z,3.83
2019-01-14T16:58:23.603Z,3.00
2019-01-14T17:00:52.190Z,5.00
2019-01-14T17:03:20.765Z,4.43
2019-01-14T17:05:49.936Z,4.20
2019-01-14T17:08:18.473Z,4.67
2019-01-14T17:10:47.062Z,3.43
2019-01-14T17:13:15.440Z,3.90
2019-01-14T17:15:44.217Z,8.30
2019-01-14T17:18:12.848Z,6.00
2019-01-14T17:20:41.724Z,7.57
2019-01-14T17:23:10.320Z,8.50
2019-01-14T17:25:38.963Z,8.63
2019-01-14T17:28:07.645Z,8.90
2019-01-14T17:30:37.406Z,6.83
2019-01-14T17:33:06.169Z,6.67
2019-01-14T17:35:34.890Z,6.37
2019-01-14T17:38:03.511Z,4.90
2019-01-14T17:40:32.677Z,3.87
2019-01-14T17:43:01.558Z,4.40
2019-01-14T17:45:30.272Z,4.73
2019-01-14T17:47:58.850Z,5.70
2019-01-14T17:50:27.654Z,4.73
2019-01-14T17:52:56.463Z,4.10
2019-01-14T17:55:24.916Z,3.60
2019-01-14T17:57:53.474Z,4.57
2019-01-14T18:00:26.279Z,4.63
2019-01-14T18:02:55.048Z,5.50
2019-01-14T18:05:23.562Z,9.73
2019-01-14T18:07:52.301Z,10.10
2019-01-14T18:10:21.179Z,11.20
2019-01-14T18:12:50.891Z,11.10
2019-01-14T18:15:19.576Z,10.27
2019-01-14T18:17:48.055Z,10.50
2019-01-14T18:20:18.529Z,12.17
2019-01-14T18:22:47.142Z,12.97
2019-01-14T18:25:16.300Z,11.20
2019-01-14T18:27:45.234Z,11.17
2019-01-14T18:30:21.044Z,11.13
2019-01-14T18:32:49.769Z,8.67
2019-01-14T18:35:18.449Z,8.13
2019-01-14T18:37:47.223Z,7.23
2019-01-14T18:40:16.939Z,7.30
2019-01-14T18:42:45.956Z,6.70
2019-01-14T18:45:15.707Z,7.20
2019-01-14T18:47:44.364Z,7.00
2019-01-14T18:50:15.352Z,5.90
2019-01-14T18:52:44.099Z,6.07
2019-01-14T18:55:12.908Z,7.47
2019-01-14T18:57:41.727Z,6.67
2019-01-14T19:00:21.455Z,8.50
2019-01-14T19:02:51.325Z,8.37
2019-01-14T19:05:20.281Z,8.10
2019-01-14T19:07:49.278Z,6.73
2019-01-14T19:10:18.017Z,6.37
2019-01-14T19:12:46.646Z,6.20
2019-01-14T19:15:22.077Z,5.77
2019-01-14T19:17:51.840Z,5.40
2019-01-14T19:20:25.815Z,5.03
2019-01-14T19:22:54.572Z,4.60
2019-01-14T19:25:23.217Z,4.00
2019-01-14T19:27:51.937Z,4.10
2019-01-14T19:30:20.923Z,3.97
2019-01-14T19:32:49.657Z,3.87
2019-01-14T19:35:18.362Z,2.70
2019-01-14T19:37:47.144Z,2.80
2019-01-14T19:40:17.435Z,3.20
2019-01-14T19:42:46.215Z,2.77
2019-01-14T19:45:16.298Z,2.70
2019-01-14T19:47:45.101Z,2.43
2019-01-14T19:50:16.390Z,2.30
2019-01-14T19:52:45.413Z,2.53
2019-01-14T19:55:16.593Z,3.50
2019-01-14T19:57:45.235Z,3.10
2019-01-14T20:00:20.441Z,3.40
2019-01-14T20:02:49.119Z,3.50
2019-01-14T20:05:17.951Z,2.60
2019-01-14T20:07:46.844Z,2.57
2019-01-14T20:10:15.633Z,2.57
2019-01-14T20:12:44.262Z,2.27
2019-01-14T20:15:14.397Z,3.50
2019-01-14T20:17:43.207Z,2.47
2019-01-14T20:20:12.136Z,2.87
2019-01-14T20:22:40.922Z,3.20
2019-01-14T20:25:10.369Z,4.40
2019-01-14T20:27:39.129Z,4.83
2019-01-14T20:30:12.163Z,4.13
2019-01-14T20:32:40.832Z,3.90
2019-01-14T20:35:09.453Z,4.50
2019-01-14T20:37:38.165Z,3.87
2019-01-14T20:40:07.192Z,3.17
2019-01-14T20:42:35.886Z,3.20
2019-01-14T20:45:05.822Z,3.27
2019-01-14T20:47:36.510Z,2.63
2019-01-14T20:50:06.709Z,2.60
2019-01-14T20:52:35.219Z,3.47
2019-01-14T20:55:04.901Z,2.40
2019-01-14T20:57:33.572Z,2.30
2019-01-14T21:00:02.311Z,3.20
2019-01-14T21:02:31.331Z,2.93
2019-01-14T21:05:00.332Z,3.93
2019-01-14T21:07:29.204Z,3.00
2019-01-14T21:09:57.938Z,2.20
2019-01-14T21:12:26.416Z,3.03
2019-01-14T21:14:55.289Z,9.10
2019-01-14T21:17:23.785Z,6.50
2019-01-14T21:19:52.349Z,6.90
2019-01-14T21:22:20.880Z,6.00
2019-01-14T21:24:49.662Z,6.97
2019-01-14T21:27:18.317Z,7.07
2019-01-14T21:29:46.829Z,8.43
2019-01-14T21:32:15.588Z,5.27
2019-01-14T21:34:44.122Z,5.63
2019-01-14T21:37:12.725Z,4.60
2019-01-14T21:39:41.408Z,2.90
2019-01-14T21:42:10.277Z,1.70
2019-01-14T21:44:38.830Z,1.50
2019-01-14T21:47:07.291Z,3.03
2019-01-14T21:49:35.925Z,1.37
2019-01-14T21:52:04.571Z,1.67
2019-01-14T21:54:33.127Z,1.50
2019-01-14T21:57:01.894Z,1.87
2019-01-14T21:59:30.387Z,1.90
2019-01-14T22:01:59.003Z,1.73
2019-01-14T22:04:27.540Z,1.60
2019-01-14T22:06:56.239Z,1.80
2019-01-14T22:09:24.878Z,1.90
2019-01-14T22:11:53.357Z,2.23
2019-01-14T22:14:22.057Z,1.80
2019-01-14T22:16:50.607Z,2.00
2019-01-14T22:19:19.376Z,1.40
2019-01-14T22:21:47.815Z,1.40
2019-01-14T22:24:16.213Z,1.50
2019-01-14T22:26:44.739Z,1.33
2019-01-14T22:29:13.179Z,1.70
2019-01-14T22:31:41.910Z,1.50
2019-01-14T22:34:10.650Z,1.10
2019-01-14T22:36:39.002Z,1.50
2019-01-14T22:39:07.901Z,1.40
2019-01-14T22:41:36.273Z,1.80
2019-01-14T22:44:05.138Z,1.20
2019-01-14T22:46:33.743Z,2.00
2019-01-14T22:49:02.373Z,1.50
2019-01-14T22:51:30.797Z,1.40
2019-01-14T22:53:59.340Z,1.40
2019-01-14T22:56:27.777Z,1.37
2019-01-14T22:58:56.441Z,1.20
2019-01-14T23:01:44.334Z,1.20
2019-01-14T23:04:13.149Z,1.10
2019-01-14T23:06:41.771Z,1.20
2019-01-14T23:09:11.262Z,1.30
2019-01-14T23:11:39.684Z,1.27
2019-01-14T23:14:08.194Z,1.47
2019-01-14T23:16:36.931Z,1.70
2019-01-14T23:19:05.556Z,1.50
2019-01-14T23:21:34.114Z,1.33
2019-01-14T23:24:02.669Z,1.37
2019-01-14T23:26:31.369Z,1.20
2019-01-14T23:28:59.979Z,1.30
2019-01-14T23:31:28.638Z,1.13
2019-01-14T23:33:57.176Z,1.20
2019-01-14T23:36:25.794Z,1.40
2019-01-14T23:38:54.483Z,1.10
2019-01-14T23:41:23.128Z,1.40
2019-01-14T23:43:52.020Z,1.13
2019-01-14T23:46:20.820Z,1.40
2019-01-14T23:48:49.350Z,1.20
2019-01-14T23:51:17.882Z,1.20
2019-01-14T23:53:46.536Z,1.03
2019-01-14T23:56:15.158Z,1.20
2019-01-14T23:58:43.882Z,1.10
